Time;durP1;ratioP1;P1;durP2;ratioP2;P2;SDS_P1;SDS_P2;PMS_P1;PMS_P2;Temp;Humidity;BMP_temperature;BMP_pressure;BME280_temperature;BME280_humidity;BME280_pressure;Samples;Min_cycle;Max_cycle;Signal;HPM_P1;HPM_P2
2022/07/09 00:00:33;;;;;;;2.93;2.73;;;;;;;15.98;62.94;155466.75;5105639;27;20572;-79
2022/07/09 00:03:00;;;;;;;3.10;2.80;;;;;;;15.97;62.75;155462.81;5092027;28;20495;-79
2022/07/09 00:05:27;;;;;;;3.63;3.20;;;;;;;15.96;62.32;155461.56;5071478;28;20442;-79
2022/07/09 00:07:53;;;;;;;3.40;3.10;;;;;;;15.97;62.67;155462.81;5070468;28;20503;-79
2022/07/09 00:10:20;;;;;;;3.90;2.97;;;;;;;15.95;62.92;155457.63;5096717;28;20446;-79
2022/07/09 00:12:47;;;;;;;3.37;3.03;;;;;;;15.93;62.62;155452.44;5069875;28;20499;-79
2022/07/09 00:15:14;;;;;;;4.63;2.90;;;;;;;15.91;62.96;155448.56;5067535;28;20864;-79
2022/07/09 00:17:42;;;;;;;3.30;3.00;;;;;;;15.90;62.78;155445.94;5071133;28;20570;-79
2022/07/09 00:20:10;;;;;;;3.80;3.40;;;;;;;15.87;62.78;155436.81;5069357;28;20450;-80
2022/07/09 00:22:37;;;;;;;3.30;2.83;;;;;;;15.84;62.99;155431.63;5071549;28;20660;-79
2022/07/09 00:25:04;;;;;;;3.83;3.30;;;;;;;15.82;62.88;155425.13;5070023;28;20449;-79
2022/07/09 00:27:31;;;;;;;5.77;3.53;;;;;;;15.77;62.99;155413.47;5071729;28;20433;-79
2022/07/09 00:29:57;;;;;;;3.57;3.10;;;;;;;15.73;63.69;155403.03;5070646;28;20446;-79
2022/07/09 00:32:24;;;;;;;3.43;3.13;;;;;;;15.71;63.28;155397.84;5071569;28;20427;-79
2022/07/09 00:34:52;;;;;;;3.93;3.53;;;;;;;15.67;63.70;155387.41;5107486;27;20923;-79
2022/07/09 00:37:19;;;;;;;4.43;3.10;;;;;;;15.65;63.82;155380.91;5068827;28;20517;-79
2022/07/09 00:39:46;;;;;;;4.60;3.60;;;;;;;15.66;63.43;155383.53;5064486;28;20535;-79
2022/07/09 00:42:12;;;;;;;5.40;3.70;;;;;;;15.64;63.82;155378.34;5069710;28;20688;-79
2022/07/09 00:44:39;;;;;;;5.83;4.10;;;;;;;15.63;63.37;155377.03;5104522;28;20529;-79
2022/07/09 00:47:07;;;;;;;3.73;3.07;;;;;;;15.62;63.60;155374.41;5102782;28;20449;-79
2022/07/09 00:49:37;;;;;;;4.53;3.47;;;;;;;15.61;64.04;155371.84;5070445;28;20492;-79
2022/07/09 00:52:06;;;;;;;4.63;3.27;;;;;;;15.60;64.31;155367.91;5083896;28;20504;-79
2022/07/09 00:54:34;;;;;;;5.03;3.20;;;;;;;15.56;64.20;155358.84;5082427;28;20933;-79
2022/07/09 00:57:03;;;;;;;5.40;3.40;;;;;;;15.51;64.19;155345.88;5071036;28;20501;-76
2022/07/09 00:59:29;;;;;;;4.43;3.30;;;;;;;15.47;64.85;155334.13;5068697;28;20474;-76
2022/07/09 01:01:57;;;;;;;4.30;3.17;;;;;;;15.47;64.97;155335.44;5071017;28;20503;-76
2022/07/09 01:04:23;;;;;;;3.73;3.20;;;;;;;15.45;65.42;155330.19;5071191;28;20430;-76
2022/07/09 01:06:50;;;;;;;4.13;3.60;;;;;;;15.45;65.64;155330.19;5070194;28;20538;-76
2022/07/09 01:09:18;;;;;;;5.63;4.00;;;;;;;15.42;65.37;155322.41;5060541;28;20548;-76
2022/07/09 01:11:45;;;;;;;4.37;3.57;;;;;;;15.42;65.58;155321.09;5080153;28;20511;-76
2022/07/09 01:14:12;;;;;;;3.97;3.60;;;;;;;15.38;66.04;155311.97;5069539;28;20441;-76
2022/07/09 01:16:39;;;;;;;4.00;3.57;;;;;;;15.34;66.09;155301.59;5070357;28;20517;-76
2022/07/09 01:19:05;;;;;;;7.97;3.70;;;;;;;15.27;66.39;155284.69;5101132;28;20454;-76
2022/07/09 01:21:34;;;;;;;4.23;3.50;;;;;;;15.25;66.43;155278.19;5069621;28;20449;-76
2022/07/09 01:24:00;;;;;;;3.57;3.27;;;;;;;15.25;66.28;155278.19;5071662;28;20422;-76
2022/07/09 01:26:28;;;;;;;4.87;3.70;;;;;;;15.23;66.21;155273.00;5081391;28;20938;-76
2022/07/09 01:28:55;;;;;;;5.73;3.73;;;;;;;15.22;66.18;155270.44;5102826;28;20496;-76
2022/07/09 01:31:21;;;;;;;4.90;4.40;;;;;;;15.22;66.08;155270.44;5103055;28;20904;-76
2022/07/09 01:33:48;;;;;;;4.60;3.27;;;;;;;15.18;66.50;155260.00;5070469;28;20438;-76
2022/07/09 01:36:16;;;;;;;3.60;2.90;;;;;;;15.16;66.21;155254.81;5069141;28;21622;-76
2022/07/09 01:38:44;;;;;;;3.83;3.50;;;;;;;15.12;66.57;155244.41;5064868;28;20591;-76
2022/07/09 01:41:10;;;;;;;4.63;3.67;;;;;;;15.11;66.57;155243.16;5050962;28;20537;-76
2022/07/09 01:43:37;;;;;;;5.00;3.70;;;;;;;15.10;66.36;155240.53;5060185;28;20447;-76
2022/07/09 01:46:04;;;;;;;4.90;3.60;;;;;;;15.09;66.72;155236.66;5061714;28;20460;-76
2022/07/09 01:48:31;;;;;;;6.13;3.50;;;;;;;15.06;66.85;155228.84;5071396;28;20414;-76
2022/07/09 01:50:58;;;;;;;5.03;3.50;;;;;;;15.05;66.75;155226.22;5072640;28;20426;-76
2022/07/09 01:53:25;;;;;;;3.90;3.30;;;;;;;15.04;66.82;155224.94;5073852;28;20422;-76
2022/07/09 01:55:53;;;;;;;4.43;3.33;;;;;;;15.03;66.64;155222.34;5071395;28;20988;-76
2022/07/09 01:58:20;;;;;;;5.90;4.00;;;;;;;15.01;66.88;155217.13;5104559;28;20491;-76
2022/07/09 02:00:46;;;;;;;3.93;3.47;;;;;;;15.01;66.83;155215.88;5086381;28;20480;-76
2022/07/09 02:03:13;;;;;;;6.13;3.80;;;;;;;14.96;67.05;155202.81;5099012;28;20548;-76
2022/07/09 02:05:40;;;;;;;4.03;3.10;;;;;;;14.96;66.94;155202.81;5072880;28;20452;-76
2022/07/09 02:08:06;;;;;;;5.30;3.20;;;;;;;14.94;66.98;155197.66;5055000;28;21030;-77
2022/07/09 02:10:33;;;;;;;5.90;4.00;;;;;;;14.93;67.02;155195.06;5074948;28;20850;-76
2022/07/09 02:13:02;;;;;;;3.73;3.40;;;;;;;14.92;66.83;155192.47;5073679;28;20446;-79
2022/07/09 02:15:28;;;;;;;6.27;3.43;;;;;;;14.90;67.31;155187.28;5069948;28;20458;-79
2022/07/09 02:17:55;;;;;;;4.63;3.10;;;;;;;14.86;66.78;155178.16;5079213;28;20517;-79
2022/07/09 02:20:22;;;;;;;5.10;3.00;;;;;;;14.84;66.80;155171.66;5078491;28;20453;-79
2022/07/09 02:22:49;;;;;;;3.20;2.90;;;;;;;14.83;66.92;155169.06;5073224;28;20872;-79
2022/07/09 02:25:16;;;;;;;3.10;2.80;;;;;;;14.82;67.15;155166.47;5071931;28;20438;-79
2022/07/09 02:27:43;;;;;;;4.30;2.97;;;;;;;14.81;67.27;155163.88;5046585;28;20489;-79
2022/07/09 02:30:11;;;;;;;5.60;3.40;;;;;;;14.77;67.32;155154.81;5089519;28;20916;-79
2022/07/09 02:32:39;;;;;;;3.83;3.40;;;;;;;14.77;67.48;155153.50;5072218;28;20485;-79
2022/07/09 02:35:07;;;;;;;4.00;3.13;;;;;;;14.75;67.44;155148.25;5063471;28;20490;-79
2022/07/09 02:37:34;;;;;;;3.60;3.30;;;;;;;14.72;67.47;155140.50;5069301;28;20829;-79
2022/07/09 02:40:01;;;;;;;5.50;3.37;;;;;;;14.73;67.58;155144.38;5105176;28;20473;-79
2022/07/09 02:42:27;;;;;;;3.50;2.70;;;;;;;14.73;67.75;155143.09;5106298;28;20479;-79
2022/07/09 02:44:54;;;;;;;3.20;2.90;;;;;;;14.71;67.90;155137.91;5104580;28;20450;-79
2022/07/09 02:47:22;;;;;;;4.30;3.30;;;;;;;14.69;67.61;155132.72;5073967;28;20525;-79
2022/07/09 02:49:49;;;;;;;3.60;3.30;;;;;;;14.67;67.86;155127.53;5073672;28;20943;-79
2022/07/09 02:52:16;;;;;;;4.40;2.93;;;;;;;14.64;68.00;155121.00;5084085;28;20457;-79
2022/07/09 02:54:42;;;;;;;3.73;3.30;;;;;;;14.63;68.38;155118.41;5075160;28;20450;-79
2022/07/09 02:57:09;;;;;;;3.40;3.10;;;;;;;14.62;68.50;155117.09;5105422;28;20505;-79
2022/07/09 02:59:36;;;;;;;3.67;3.33;;;;;;;14.60;68.37;155110.63;5072150;28;20559;-79
2022/07/09 03:02:03;;;;;;;3.87;3.20;;;;;;;14.57;68.44;155104.13;5085840;28;20456;-79
2022/07/09 03:04:31;;;;;;;3.73;3.40;;;;;;;14.54;68.60;155096.31;5075344;28;20481;-79
2022/07/09 03:06:58;;;;;;;6.30;3.00;;;;;;;14.54;68.55;155096.31;5069251;28;20450;-79
2022/07/09 03:09:24;;;;;;;5.73;2.90;;;;;;;14.51;68.24;155088.53;5106260;27;21008;-79
2022/07/09 03:11:51;;;;;;;9.50;3.00;;;;;;;14.50;69.76;155084.66;5073664;28;20552;-79
2022/07/09 03:14:18;;;;;;;5.83;4.00;;;;;;;14.50;69.60;155084.66;5070568;28;20456;-79
2022/07/09 03:16:45;;;;;;;4.23;3.30;;;;;;;14.47;69.15;155078.16;5052861;28;20927;-79
2022/07/09 03:19:11;;;;;;;4.90;3.47;;;;;;;14.50;69.36;155085.97;5052557;28;20510;-79
2022/07/09 03:21:39;;;;;;;5.50;3.53;;;;;;;14.51;70.59;155088.53;5053070;28;20470;-79
2022/07/09 03:24:08;;;;;;;4.70;3.50;;;;;;;14.47;70.04;155076.84;5068925;28;20540;-79
2022/07/09 03:26:34;;;;;;;3.60;3.30;;;;;;;14.33;70.26;155041.78;5072046;28;20535;-79
2022/07/09 03:29:01;;;;;;;4.77;3.50;;;;;;;14.27;70.40;155026.13;5069543;28;20492;-79
2022/07/09 03:31:28;;;;;;;3.80;3.40;;;;;;;14.18;70.56;155002.78;5086615;28;20969;-79
2022/07/09 03:33:55;;;;;;;3.50;3.20;;;;;;;14.13;70.87;154988.50;5069959;28;20860;-79
2022/07/09 03:36:21;;;;;;;4.80;3.43;;;;;;;14.12;71.06;154985.88;5069632;28;20584;-79
2022/07/09 03:38:50;;;;;;;3.47;3.17;;;;;;;14.09;71.23;154979.41;5072907;28;20602;-79
2022/07/09 03:41:16;;;;;;;3.53;3.23;;;;;;;14.12;71.35;154985.88;5079261;28;20441;-79
2022/07/09 03:43:43;;;;;;;4.20;3.33;;;;;;;14.13;71.43;154988.50;5122081;27;20444;-79
2022/07/09 03:46:10;;;;;;;4.00;3.57;;;;;;;14.12;72.10;154985.88;5072534;28;20442;-79
2022/07/09 03:48:36;;;;;;;4.20;3.40;;;;;;;14.05;71.60;154969.03;5072314;28;20529;-79
2022/07/09 03:51:03;;;;;;;4.37;3.33;;;;;;;14.04;72.42;154966.41;5070724;28;20738;-79
2022/07/09 03:53:30;;;;;;;3.97;3.53;;;;;;;14.05;73.23;154969.03;5104460;28;20442;-79
2022/07/09 03:55:58;;;;;;;3.83;3.23;;;;;;;14.00;72.59;154956.06;5093098;28;20946;-78
2022/07/09 03:58:25;;;;;;;5.47;3.67;;;;;;;14.01;73.39;154958.63;5059675;28;20569;-79
2022/07/09 04:00:54;;;;;;;4.40;4.00;;;;;;;14.01;73.51;154958.63;5072082;28;20488;-79
2022/07/09 04:03:21;;;;;;;5.37;4.40;;;;;;;14.05;73.74;154969.03;5103204;28;20453;-79
2022/07/09 04:05:48;;;;;;;6.20;4.40;;;;;;;14.08;73.66;154975.53;5067418;28;20492;-79
2022/07/09 04:08:14;;;;;;;5.03;4.20;;;;;;;14.09;74.17;154979.41;5087747;28;20536;-79
2022/07/09 04:10:41;;;;;;;8.43;4.80;;;;;;;14.07;73.75;154972.91;5081281;28;20476;-79
2022/07/09 04:13:09;;;;;;;8.00;4.20;;;;;;;14.12;74.11;154987.19;5075250;28;20485;-79
2022/07/09 04:15:36;;;;;;;7.17;4.30;;;;;;;14.14;74.65;154992.38;5070438;28;20531;-79
2022/07/09 04:18:03;;;;;;;4.83;4.20;;;;;;;14.22;74.54;155011.84;5103856;28;20507;-79
2022/07/09 04:20:30;;;;;;;5.27;4.73;;;;;;;14.34;74.71;155044.41;5072174;28;20461;-79
2022/07/09 04:22:56;;;;;;;5.10;3.90;;;;;;;14.51;73.93;155087.22;5103389;28;20940;-78
2022/07/09 04:25:23;;;;;;;6.10;4.03;;;;;;;14.67;73.78;155127.53;5071166;28;20833;-79
2022/07/09 04:27:50;;;;;;;6.93;4.80;;;;;;;14.77;72.74;155153.50;5101049;28;20466;-79
2022/07/09 04:30:18;;;;;;;5.00;3.77;;;;;;;14.81;72.92;155163.88;5054511;28;20534;-79
2022/07/09 04:32:45;;;;;;;4.10;3.70;;;;;;;14.84;72.33;155171.66;5053849;28;20548;-79
2022/07/09 04:35:11;;;;;;;6.33;3.80;;;;;;;14.89;72.48;155185.97;5070916;28;20515;-78
2022/07/09 04:37:38;;;;;;;7.37;4.20;;;;;;;14.98;72.39;155209.38;5069851;28;20462;-78
2022/07/09 04:40:06;;;;;;;4.30;3.87;;;;;;;15.04;71.96;155224.94;5079000;28;20485;-78
2022/07/09 04:42:33;;;;;;;6.17;4.37;;;;;;;15.10;71.66;155240.53;5083125;28;20508;-78
2022/07/09 04:45:00;;;;;;;6.30;5.00;;;;;;;15.16;71.78;155256.13;5061170;28;20835;-80
2022/07/09 04:47:28;;;;;;;4.90;4.40;;;;;;;15.25;71.82;155278.19;5091177;28;20491;-79
2022/07/09 04:49:54;;;;;;;5.20;4.40;;;;;;;15.30;71.36;155289.91;5073721;28;20674;-78
2022/07/09 04:52:26;;;;;;;5.93;4.43;;;;;;;15.38;71.61;155310.72;5070141;28;20495;-78
2022/07/09 04:54:53;;;;;;;5.53;4.87;;;;;;;15.37;71.81;155309.41;5068550;28;20480;-79
2022/07/09 04:57:19;;;;;;;6.83;5.13;;;;;;;15.43;71.67;155325.00;5103353;28;20487;-78
2022/07/09 04:59:46;;;;;;;6.23;4.60;;;;;;;15.45;71.31;155330.19;5102639;28;20462;-79
2022/07/09 05:02:14;;;;;;;5.23;4.73;;;;;;;15.49;71.53;155340.63;5065354;28;20527;-79
2022/07/09 05:04:42;;;;;;;4.50;4.10;;;;;;;15.64;71.90;155379.66;5071035;28;20430;-79
2022/07/09 05:07:08;;;;;;;6.63;4.60;;;;;;;15.87;71.51;155436.81;5093576;28;20482;-79
2022/07/09 05:09:35;;;;;;;5.80;4.90;;;;;;;16.09;70.62;155494.06;5058396;28;20454;-79
2022/07/09 05:12:02;;;;;;;5.20;4.60;;;;;;;16.32;69.89;155553.84;5069245;28;20464;-79
2022/07/09 05:14:28;;;;;;;5.73;5.00;;;;;;;16.51;69.31;155603.28;5069996;28;20955;-79
2022/07/09 05:16:55;;;;;;;5.80;4.67;;;;;;;16.74;68.57;155661.88;5097378;28;20506;-79
2022/07/09 05:19:22;;;;;;;7.43;4.83;;;;;;;16.95;67.95;155717.81;5080508;28;20834;-78
2022/07/09 05:21:50;;;;;;;6.07;4.87;;;;;;;17.07;67.16;155747.75;5068770;28;20465;-79
2022/07/09 05:24:17;;;;;;;5.33;4.67;;;;;;;17.41;66.10;155834.94;5102814;28;20472;-79
2022/07/09 05:26:43;;;;;;;10.40;4.63;;;;;;;17.67;64.84;155902.69;5071047;28;20579;-77
2022/07/09 05:29:10;;;;;;;10.63;5.00;;;;;;;17.94;63.72;155971.69;5062465;28;20442;-77
2022/07/09 05:31:37;;;;;;;5.50;4.37;;;;;;;18.23;62.63;156047.22;5061111;28;20448;-78
2022/07/09 05:34:05;;;;;;;7.43;4.90;;;;;;;18.46;61.79;156105.81;5099855;28;20453;-78
2022/07/09 05:36:32;;;;;;;4.80;4.30;;;;;;;18.70;61.23;156168.38;5092911;28;20479;-78
2022/07/09 05:39:01;;;;;;;7.00;4.50;;;;;;;18.95;60.17;156232.25;5069925;28;20531;-78
2022/07/09 05:41:28;;;;;;;5.37;4.07;;;;;;;19.06;59.22;156262.19;5103913;28;20446;-78
2022/07/09 05:43:54;;;;;;;4.70;4.13;;;;;;;19.18;58.54;156292.19;5096062;28;20522;-78
2022/07/09 05:46:21;;;;;;;5.10;4.17;;;;;;;19.52;57.94;156379.53;5071741;28;20439;-78
2022/07/09 05:48:48;;;;;;;6.27;4.00;;;;;;;19.70;56.29;156426.47;5064594;28;20446;-78
2022/07/09 05:51:15;;;;;;;5.77;4.80;;;;;;;19.87;55.96;156472.13;5067543;28;20453;-78
2022/07/09 05:53:42;;;;;;;5.90;4.43;;;;;;;20.02;55.78;156509.91;5069281;28;20442;-78
2022/07/09 05:56:10;;;;;;;8.80;4.33;;;;;;;20.32;54.56;156588.25;5070287;28;20445;-78
2022/07/09 05:58:39;;;;;;;4.87;4.10;;;;;;;20.54;53.48;156644.34;5092204;28;20535;-78
2022/07/09 06:01:06;;;;;;;7.67;5.00;;;;;;;20.71;54.01;156688.66;5068108;28;20440;-78
2022/07/09 06:03:33;;;;;;;7.07;4.77;;;;;;;20.90;53.79;156736.94;5093399;28;20430;-78
2022/07/09 06:06:00;;;;;;;5.60;5.07;;;;;;;21.07;54.55;156781.38;5068948;28;20454;-78
2022/07/09 06:08:26;;;;;;;6.63;4.23;;;;;;;21.18;54.40;156811.38;5100952;28;20499;-78
2022/07/09 06:10:53;;;;;;;5.27;4.30;;;;;;;21.27;54.50;156833.56;5077976;28;20453;-79
2022/07/09 06:13:21;;;;;;;7.63;4.97;;;;;;;21.45;54.36;156880.53;5090265;28;20776;-79
2022/07/09 06:15:48;;;;;;;9.00;4.90;;;;;;;21.47;54.50;156885.75;5079214;28;20908;-79
2022/07/09 06:18:16;;;;;;;4.80;4.40;;;;;;;21.87;53.58;156987.69;5069729;28;20578;-78
2022/07/09 06:20:42;;;;;;;7.40;4.87;;;;;;;22.19;52.23;157071.22;5070090;28;20438;-79
2022/07/09 06:23:09;;;;;;;5.37;4.87;;;;;;;22.33;51.68;157109.13;5085941;28;20456;-78
2022/07/09 06:25:37;;;;;;;5.30;4.10;;;;;;;22.44;51.57;157137.84;5101040;28;20457;-78
2022/07/09 06:28:04;;;;;;;5.30;4.77;;;;;;;22.65;50.40;157191.47;5069605;28;20438;-79
2022/07/09 06:30:33;;;;;;;7.13;4.67;;;;;;;22.72;51.04;157209.72;5068309;28;20952;-78
2022/07/09 06:33:00;;;;;;;4.97;4.57;;;;;;;22.73;51.30;157212.34;5099009;28;20454;-79
2022/07/09 06:35:27;;;;;;;5.87;5.13;;;;;;;23.15;50.56;157319.47;5103742;28;20444;-79
2022/07/09 06:37:54;;;;;;;6.00;4.37;;;;;;;23.44;49.26;157396.66;5075055;28;20800;-79
2022/07/09 06:40:20;;;;;;;5.33;3.90;;;;;;;23.46;46.92;157400.56;5071917;28;20477;-78
2022/07/09 06:42:47;;;;;;;5.40;3.70;;;;;;;23.57;46.88;157429.31;5108199;28;20543;-79
2022/07/09 06:45:20;;;;;;;5.50;4.20;;;;;;;23.57;46.71;157429.31;5094842;28;20428;-79
2022/07/09 06:47:48;;;;;;;4.00;3.70;;;;;;;23.16;46.93;157322.13;5094953;28;20443;-78
2022/07/09 06:50:15;;;;;;;5.67;3.93;;;;;;;23.03;47.47;157290.72;5082200;28;21020;-78
2022/07/09 06:52:42;;;;;;;5.90;3.87;;;;;;;22.78;47.88;157225.41;5074508;28;20438;-77
2022/07/09 06:55:10;;;;;;;5.27;4.27;;;;;;;22.44;48.34;157137.84;5073455;28;20438;-78
2022/07/09 06:57:37;;;;;;;9.17;4.00;;;;;;;22.13;49.82;157055.56;5072802;28;20489;-78
2022/07/09 07:00:04;;;;;;;5.80;4.17;;;;;;;22.37;50.03;157118.28;5073959;28;20827;-78
2022/07/09 07:02:31;;;;;;;4.63;4.27;;;;;;;22.30;50.40;157099.94;5074761;28;20442;-77
2022/07/09 07:04:59;;;;;;;5.17;4.67;;;;;;;22.43;50.33;157133.91;5107077;28;20531;-77
2022/07/09 07:07:26;;;;;;;8.83;4.20;;;;;;;22.60;49.72;157177.03;5106677;28;20472;-78
2022/07/09 07:09:53;;;;;;;5.60;4.50;;;;;;;22.78;49.98;157224.09;5072755;28;20450;-79
2022/07/09 07:12:20;;;;;;;6.90;4.10;;;;;;;23.30;49.40;157360.00;5072746;28;20776;-79
2022/07/09 07:14:46;;;;;;;5.87;4.07;;;;;;;23.74;48.48;157472.47;5064847;28;20443;-78
2022/07/09 07:17:13;;;;;;;5.17;4.67;;;;;;;23.63;47.31;157445.03;5064513;28;20490;-78
2022/07/09 07:19:40;;;;;;;4.97;3.90;;;;;;;23.77;48.08;157480.31;5073508;28;20497;-78
2022/07/09 07:22:09;;;;;;;7.23;4.13;;;;;;;24.04;48.06;157552.22;5073481;28;20576;-78
2022/07/09 07:24:35;;;;;;;4.17;3.77;;;;;;;24.46;47.01;157659.53;5102421;28;20438;-78
2022/07/09 07:27:02;;;;;;;7.63;3.70;;;;;;;24.69;45.83;157721.00;5065158;28;20445;-79
2022/07/09 07:29:29;;;;;;;6.13;4.07;;;;;;;24.75;45.23;157736.66;5069227;28;20466;-78
2022/07/09 07:31:57;;;;;;;6.67;3.70;;;;;;;24.47;46.46;157662.13;5098811;28;20534;-78
2022/07/09 07:34:24;;;;;;;6.20;4.00;;;;;;;24.92;46.26;157779.91;5069900;28;20544;-79
2022/07/09 07:36:51;;;;;;;5.13;3.40;;;;;;;25.10;44.64;157827.00;5097234;28;20454;-78
2022/07/09 07:39:21;;;;;;;4.33;3.97;;;;;;;25.10;44.09;157825.75;5105841;28;20477;-78
2022/07/09 07:41:48;;;;;;;5.00;4.50;;;;;;;25.28;43.58;157874.09;5105975;28;20445;-78
2022/07/09 07:44:15;;;;;;;4.53;3.13;;;;;;;25.58;43.23;157950.06;5057648;28;20490;-78
2022/07/09 07:46:42;;;;;;;4.00;2.90;;;;;;;25.55;42.84;157942.25;5065753;28;20472;-78
2022/07/09 07:49:08;;;;;;;3.40;2.90;;;;;;;25.54;43.95;157939.63;5102097;28;20469;-78
2022/07/09 07:51:35;;;;;;;3.80;3.40;;;;;;;25.63;42.29;157964.47;5071419;28;20461;-78
2022/07/09 07:54:02;;;;;;;3.80;3.50;;;;;;;25.79;41.99;158006.38;5068466;28;20535;-79
2022/07/09 07:56:32;;;;;;;4.97;3.20;;;;;;;25.83;40.40;158015.53;5063707;28;20556;-79
2022/07/09 07:58:59;;;;;;;3.70;3.30;;;;;;;25.71;41.40;157984.09;5072355;28;20473;-79
2022/07/09 08:01:25;;;;;;;3.00;2.70;;;;;;;26.12;41.35;158091.47;5072842;28;20477;-79
2022/07/09 08:03:52;;;;;;;4.40;3.50;;;;;;;26.45;41.67;158177.94;5069181;28;20829;-78
2022/07/09 08:06:19;;;;;;;5.87;3.60;;;;;;;26.54;40.49;158201.53;5055755;28;21135;-78
2022/07/09 08:08:46;;;;;;;4.23;2.60;;;;;;;26.62;40.37;158221.16;5072454;28;20427;-78
2022/07/09 08:11:12;;;;;;;6.40;3.03;;;;;;;26.96;40.11;158308.97;5089587;28;20435;-78
2022/07/09 08:13:40;;;;;;;5.77;3.10;;;;;;;27.02;40.21;158324.72;5091567;28;20522;-78
2022/07/09 08:16:08;;;;;;;3.53;2.80;;;;;;;27.09;39.81;158344.34;5070705;28;20449;-78
2022/07/09 08:18:34;;;;;;;4.83;2.93;;;;;;;27.00;40.08;158320.81;5105657;28;20465;-80
2022/07/09 08:21:01;;;;;;;4.73;3.60;;;;;;;27.23;40.65;158379.75;5105203;28;20533;-79
2022/07/09 08:23:28;;;;;;;2.93;2.63;;;;;;;27.30;40.97;158398.06;5104489;28;20444;-79
2022/07/09 08:25:54;;;;;;;3.30;3.00;;;;;;;27.09;40.24;158343.03;5074973;28;20440;-79
2022/07/09 08:28:21;;;;;;;5.20;2.80;;;;;;;27.07;39.90;158337.81;5091592;28;20544;-79
2022/07/09 08:30:49;;;;;;;6.93;3.00;;;;;;;27.55;40.14;158462.34;5108535;28;20465;-79
2022/07/09 08:33:16;;;;;;;3.20;2.60;;;;;;;27.22;39.86;158375.81;5072419;28;20548;-79
2022/07/09 08:35:43;;;;;;;3.10;2.70;;;;;;;27.02;39.51;158324.72;5070911;28;20442;-79
2022/07/09 08:38:10;;;;;;;4.00;3.07;;;;;;;26.67;40.41;158232.94;5066538;28;21202;-78
2022/07/09 08:40:37;;;;;;;3.27;2.80;;;;;;;26.20;41.10;158111.16;5057828;28;20461;-79
2022/07/09 08:43:04;;;;;;;4.73;3.00;;;;;;;26.31;42.27;158141.31;5085928;28;20555;-79
2022/07/09 08:45:32;;;;;;;2.80;2.60;;;;;;;26.65;41.42;158227.72;5058870;28;20453;-79
2022/07/09 08:48:01;;;;;;;4.20;2.70;;;;;;;26.78;40.81;158263.13;5072836;28;20434;-79
2022/07/09 08:50:28;;;;;;;4.50;2.77;;;;;;;26.91;40.37;158295.88;5104706;28;20533;-79
2022/07/09 08:52:55;;;;;;;3.70;2.50;;;;;;;26.99;40.51;158316.84;5068853;28;20449;-79
2022/07/09 08:55:22;;;;;;;3.07;2.77;;;;;;;27.12;39.87;158350.91;5061316;28;20442;-78
2022/07/09 08:57:50;;;;;;;3.13;2.63;;;;;;;27.01;40.60;158322.06;5071708;28;20524;-79
2022/07/09 09:00:17;;;;;;;3.87;2.87;;;;;;;26.89;40.70;158291.97;5083372;28;20515;-79
2022/07/09 09:02:44;;;;;;;4.40;3.27;;;;;;;26.68;41.76;158235.59;5069352;28;20484;-79
2022/07/09 09:05:14;;;;;;;3.60;2.87;;;;;;;27.20;39.90;158371.88;5069465;28;20538;-79
2022/07/09 09:07:41;;;;;;;4.77;3.37;;;;;;;27.42;39.54;158429.59;5104771;28;20512;-79
2022/07/09 09:10:09;;;;;;;2.63;2.40;;;;;;;27.71;39.15;158505.59;5070193;28;20487;-79
2022/07/09 09:12:35;;;;;;;3.73;2.77;;;;;;;27.87;39.64;158544.91;5101738;28;20842;-79
2022/07/09 09:15:06;;;;;;;4.30;2.23;;;;;;;28.16;39.01;158621.00;5072274;28;20440;-79
2022/07/09 09:17:32;;;;;;;3.10;2.90;;;;;;;28.10;39.17;158605.25;5076174;28;20458;-79
2022/07/09 09:20:00;;;;;;;3.07;2.80;;;;;;;27.76;38.68;158518.72;5066768;28;20471;-79
2022/07/09 09:22:28;;;;;;;3.40;2.40;;;;;;;27.71;39.61;158505.59;5057976;28;20457;-79
2022/07/09 09:24:55;;;;;;;3.50;3.20;;;;;;;27.49;39.73;158447.94;5069459;28;20925;-79
2022/07/09 09:27:30;;;;;;;3.63;3.40;;;;;;;27.79;40.43;158526.59;5104243;28;20449;-79
2022/07/09 09:29:58;;;;;;;3.40;3.10;;;;;;;27.11;39.69;158348.31;5072338;28;20444;-77
2022/07/09 09:32:25;;;;;;;3.90;2.57;;;;;;;26.81;41.06;158269.69;5082736;28;20457;-77
2022/07/09 09:34:52;;;;;;;4.93;2.70;;;;;;;27.49;39.79;158447.94;5075797;28;20445;-77
2022/07/09 09:37:30;;;;;;;3.40;2.43;;;;;;;27.19;39.77;158369.28;5061765;28;20443;-78
2022/07/09 09:39:57;;;;;;;4.53;3.17;;;;;;;26.93;40.58;158301.09;5051506;28;20565;-78
2022/07/09 09:42:24;;;;;;;3.17;2.87;;;;;;;27.14;40.31;158356.13;5063030;28;20584;-79
2022/07/09 09:44:51;;;;;;;2.80;2.60;;;;;;;27.47;40.41;158442.69;5070110;28;20516;-79
2022/07/09 09:47:22;;;;;;;4.13;2.90;;;;;;;27.58;40.31;158470.22;5090151;28;20879;-78
2022/07/09 09:49:50;;;;;;;4.17;2.93;;;;;;;27.10;39.74;158347.00;5088637;28;20450;-79
2022/07/09 09:52:20;;;;;;;3.10;2.80;;;;;;;26.45;40.65;158176.66;5069574;28;20609;-79
2022/07/09 09:54:49;;;;;;;3.70;3.40;;;;;;;25.95;42.25;158046.94;5050115;28;20478;-78
2022/07/09 09:57:17;;;;;;;3.00;2.70;;;;;;;25.40;43.41;157905.53;5067020;28;20976;-78
2022/07/09 09:59:45;;;;;;;3.83;3.40;;;;;;;25.30;43.87;157878.06;5103459;28;20825;-78
2022/07/09 10:02:12;;;;;;;3.93;3.43;;;;;;;24.88;44.21;157769.47;5052303;28;20541;-79
2022/07/09 10:04:40;;;;;;;3.50;3.20;;;;;;;24.96;44.77;157790.41;5086796;28;20544;-79
2022/07/09 10:07:08;;;;;;;3.10;2.80;;;;;;;24.86;44.32;157764.19;5102476;28;20494;-79
2022/07/09 10:10:06;;;;;;;3.37;2.70;;;;;;;25.09;44.13;157823.09;5116467;28;20441;-77
2022/07/09 10:12:39;;;;;;;3.90;3.40;;;;;;;24.81;45.34;157752.44;5105472;28;20535;-78
2022/07/09 10:15:09;;;;;;;4.63;3.20;;;;;;;24.75;45.75;157735.41;5059207;28;20477;-77
2022/07/09 10:17:40;;;;;;;4.20;3.10;;;;;;;24.46;45.47;157659.53;5063800;28;20561;-77
2022/07/09 10:20:10;;;;;;;3.37;2.80;;;;;;;24.22;45.61;157598.06;5060885;28;20497;-77
2022/07/09 10:22:38;;;;;;;3.40;3.10;;;;;;;24.25;45.50;157605.91;5070956;28;20467;-77
2022/07/09 10:25:07;;;;;;;3.67;2.70;;;;;;;24.73;45.01;157730.13;5089070;28;20483;-77
2022/07/09 10:27:42;;;;;;;3.27;2.90;;;;;;;24.80;45.00;157748.53;5097723;28;20446;-83
2022/07/09 10:30:10;;;;;;;5.23;2.53;;;;;;;24.78;45.28;157743.25;5074454;28;20434;-77
2022/07/09 10:32:42;;;;;;;3.60;2.73;;;;;;;24.78;44.66;157743.25;5106019;28;20464;-77
2022/07/09 10:35:09;;;;;;;3.23;2.93;;;;;;;24.96;45.00;157790.41;5073137;28;20768;-77
2022/07/09 10:37:42;;;;;;;3.83;3.03;;;;;;;25.34;44.58;157889.81;5072383;28;20472;-77
2022/07/09 10:40:14;;;;;;;4.57;2.60;;;;;;;25.63;44.02;157963.19;5072762;28;20959;-78
2022/07/09 10:42:42;;;;;;;3.10;2.60;;;;;;;25.49;44.06;157926.53;5091815;28;20551;-77
2022/07/09 10:45:22;;;;;;;4.10;3.70;;;;;;;25.69;43.36;157978.88;5127988;27;20433;-77
2022/07/09 10:47:54;;;;;;;2.70;2.50;;;;;;;25.83;41.96;158015.53;5104206;28;20457;-77
2022/07/09 10:50:21;;;;;;;3.40;2.40;;;;;;;25.74;39.52;157991.97;5074307;28;20430;-77
2022/07/09 10:52:49;;;;;;;4.70;3.10;;;;;;;25.93;40.93;158041.72;5090110;28;20441;-77
2022/07/09 10:55:18;;;;;;;3.43;2.33;;;;;;;25.71;41.24;157984.09;5073628;28;20521;-77
2022/07/09 10:57:45;;;;;;;3.53;2.57;;;;;;;25.62;40.72;157960.56;5074078;28;20480;-77
2022/07/09 11:00:15;;;;;;;3.00;2.73;;;;;;;25.95;40.17;158048.25;5073023;28;20527;-77
2022/07/09 11:02:52;;;;;;;4.10;2.93;;;;;;;25.65;40.97;157968.44;5072967;28;20504;-77
2022/07/09 11:05:19;;;;;;;2.73;2.47;;;;;;;25.48;41.44;157923.91;5074208;28;20441;-77
2022/07/09 11:07:58;;;;;;;3.07;2.30;;;;;;;25.36;42.11;157895.03;5073704;28;20454;-77
2022/07/09 11:10:27;;;;;;;3.03;2.77;;;;;;;25.36;41.65;157895.03;5072197;28;20483;-76
2022/07/09 11:12:54;;;;;;;3.13;2.27;;;;;;;25.35;41.74;157891.13;5072509;28;20848;-76
2022/07/09 11:15:22;;;;;;;3.90;2.33;;;;;;;25.37;42.91;157896.38;5073074;28;20442;-77
2022/07/09 11:17:56;;;;;;;2.80;2.43;;;;;;;25.29;41.74;157875.44;5077439;28;20442;-77
2022/07/09 11:20:22;;;;;;;2.97;2.60;;;;;;;25.21;42.46;157855.81;5069163;28;20489;-77
2022/07/09 11:22:50;;;;;;;3.20;3.00;;;;;;;25.11;42.15;157829.63;5087162;28;20923;-77
2022/07/09 11:25:17;;;;;;;3.30;2.30;;;;;;;25.09;42.92;157823.09;5070537;28;20454;-77